createdAt,value
2018-07-11T00:00:38.503Z,16.10
2018-07-11T00:01:38.655Z,15.90
2018-07-11T00:02:38.808Z,14.80
2018-07-11T00:03:38.959Z,16.10
2018-07-11T00:04:39.111Z,16.20
2018-07-11T00:05:39.262Z,15.40
2018-07-11T00:06:39.415Z,15.30
2018-07-11T00:07:39.570Z,15.50
2018-07-11T00:08:39.722Z,15.10
2018-07-11T00:09:39.873Z,16.00
2018-07-11T00:10:40.028Z,14.50
2018-07-11T00:11:40.179Z,14.50
2018-07-11T00:12:40.333Z,15.30
2018-07-11T00:13:40.485Z,15.50
2018-07-11T00:14:40.636Z,15.60
2018-07-11T00:15:40.789Z,17.20
2018-07-11T00:16:40.943Z,17.00
2018-07-11T00:17:41.098Z,16.00
2018-07-11T00:18:41.249Z,16.80
2018-07-11T00:19:41.397Z,16.10
2018-07-11T00:20:41.551Z,17.30
2018-07-11T00:21:41.702Z,16.40
2018-07-11T00:22:41.855Z,20.00
2018-07-11T00:23:42.006Z,16.70
2018-07-11T00:24:42.159Z,17.60
2018-07-11T00:25:42.312Z,16.50
2018-07-11T00:26:42.466Z,18.60
2018-07-11T00:27:42.619Z,17.10
2018-07-11T00:28:42.769Z,18.00
2018-07-11T00:29:42.923Z,19.50
2018-07-11T00:30:43.075Z,17.00
2018-07-11T00:31:43.226Z,17.90
2018-07-11T00:32:43.380Z,18.50
2018-07-11T00:33:43.533Z,19.80
2018-07-11T00:34:43.684Z,24.70
2018-07-11T00:35:43.836Z,18.00
2018-07-11T00:36:43.990Z,16.70
2018-07-11T00:37:44.139Z,19.10
2018-07-11T00:38:44.295Z,19.00
2018-07-11T00:39:44.448Z,17.50
2018-07-11T00:40:44.599Z,17.80
2018-07-11T00:41:44.752Z,17.20
2018-07-11T00:42:44.905Z,18.90
2018-07-11T00:43:45.057Z,20.20
2018-07-11T00:44:45.208Z,21.50
2018-07-11T00:45:45.359Z,20.70
2018-07-11T00:46:45.509Z,19.60
2018-07-11T00:47:45.661Z,21.90
2018-07-11T00:48:45.814Z,19.30
2018-07-11T00:49:45.964Z,22.40
2018-07-11T00:50:46.116Z,21.20
2018-07-11T00:51:46.286Z,21.30
2018-07-11T00:52:46.422Z,21.90
2018-07-11T00:53:46.569Z,20.60
2018-07-11T00:54:46.720Z,20.80
2018-07-11T00:55:46.875Z,21.30
2018-07-11T00:56:47.023Z,20.50
2018-07-11T00:57:47.173Z,21.80
2018-07-11T00:58:47.325Z,23.70
2018-07-11T00:59:47.476Z,20.50
2018-07-11T01:00:47.627Z,20.50
2018-07-11T01:01:47.780Z,20.30
2018-07-11T01:02:47.932Z,21.20
2018-07-11T01:03:48.086Z,23.60
2018-07-11T01:04:48.232Z,21.90
2018-07-11T01:05:48.384Z,20.90
2018-07-11T01:06:48.540Z,19.60
2018-07-11T01:07:48.691Z,20.80
2018-07-11T01:08:48.842Z,24.50
2018-07-11T01:09:48.996Z,21.50
2018-07-11T01:10:49.145Z,23.70
2018-07-11T01:11:49.295Z,21.10
2018-07-11T01:12:49.447Z,21.00
2018-07-11T01:13:49.600Z,18.80
2018-07-11T01:14:49.750Z,20.40
2018-07-11T01:15:49.902Z,19.30
2018-07-11T01:16:50.055Z,20.40
2018-07-11T01:17:50.209Z,19.70
2018-07-11T01:18:50.360Z,19.50
2018-07-11T01:19:50.509Z,19.70
2018-07-11T01:20:50.660Z,20.90
2018-07-11T01:21:50.813Z,21.90
2018-07-11T01:22:50.964Z,20.00
2018-07-11T01:23:51.118Z,21.00
2018-07-11T01:24:51.272Z,20.70
2018-07-11T01:25:51.424Z,19.60
2018-07-11T01:26:51.572Z,21.60
2018-07-11T01:27:51.725Z,22.70
2018-07-11T01:28:51.876Z,20.60
2018-07-11T01:29:52.028Z,21.50
2018-07-11T01:30:52.169Z,23.60
2018-07-11T01:31:52.320Z,23.60
2018-07-11T01:32:52.484Z,21.90
2018-07-11T01:33:52.637Z,21.60
2018-07-11T01:34:52.787Z,21.60
2018-07-11T01:35:52.941Z,21.20
2018-07-11T01:36:53.092Z,21.10
2018-07-11T01:37:53.244Z,21.30
2018-07-11T01:38:53.402Z,23.00
2018-07-11T01:39:53.544Z,20.50
2018-07-11T01:40:53.700Z,20.20
2018-07-11T01:41:53.851Z,22.60
2018-07-11T01:42:53.997Z,21.20
2018-07-11T01:43:54.150Z,21.00
2018-07-11T01:44:54.302Z,20.90
2018-07-11T01:45:54.454Z,22.00
2018-07-11T01:46:54.604Z,19.40
2018-07-11T01:47:54.757Z,22.30
2018-07-11T01:48:54.909Z,20.80
2018-07-11T01:49:55.058Z,21.80
2018-07-11T01:50:55.213Z,20.70
2018-07-11T01:51:55.365Z,19.60
2018-07-11T01:52:55.517Z,20.40
2018-07-11T01:53:55.668Z,19.00
2018-07-11T01:54:55.819Z,20.50
2018-07-11T01:55:55.978Z,21.60
2018-07-11T01:56:56.123Z,19.50
2018-07-11T01:57:56.276Z,18.10
2018-07-11T01:58:56.427Z,19.90
2018-07-11T01:59:56.578Z,18.80
2018-07-11T02:00:56.731Z,18.80
2018-07-11T02:01:56.879Z,18.80
2018-07-11T02:02:57.033Z,20.40
2018-07-11T02:03:57.185Z,19.60
2018-07-11T02:04:57.338Z,17.40
2018-07-11T02:05:57.489Z,20.00
2018-07-11T02:06:57.641Z,18.40
2018-07-11T02:07:57.794Z,18.50
2018-07-11T02:08:57.946Z,19.10
2018-07-11T02:09:58.101Z,18.60
2018-07-11T02:10:58.257Z,19.50
2018-07-11T02:11:58.402Z,16.90
2018-07-11T02:12:58.554Z,18.50
2018-07-11T02:13:58.704Z,20.50
2018-07-11T02:14:58.854Z,18.00
2018-07-11T02:15:59.006Z,18.50
2018-07-11T02:16:59.148Z,18.60
2018-07-11T02:17:59.299Z,19.80
2018-07-11T02:18:59.451Z,17.00
2018-07-11T02:19:59.603Z,16.80
2018-07-11T02:20:59.752Z,17.70
2018-07-11T02:21:59.930Z,18.10
2018-07-11T02:23:00.091Z,18.30
2018-07-11T02:24:00.246Z,17.30
2018-07-11T02:25:00.396Z,18.40
2018-07-11T02:26:00.547Z,18.70
2018-07-11T02:27:00.703Z,18.80
2018-07-11T02:28:00.854Z,20.40
2018-07-11T02:29:01.006Z,18.60
2018-07-11T02:30:01.158Z,18.50
2018-07-11T02:31:01.310Z,19.70
2018-07-11T02:32:01.461Z,19.70
2018-07-11T02:33:01.612Z,19.00
2018-07-11T02:34:01.764Z,20.40
2018-07-11T02:35:01.921Z,19.90
2018-07-11T02:36:02.072Z,20.30
2018-07-11T02:37:02.219Z,20.30
2018-07-11T02:38:02.373Z,20.90
2018-07-11T02:39:02.525Z,21.80
2018-07-11T02:40:02.677Z,18.50
2018-07-11T02:41:02.831Z,21.40
2018-07-11T02:42:02.984Z,20.50
2018-07-11T02:43:03.134Z,20.10
2018-07-11T02:44:03.289Z,20.60
2018-07-11T02:45:03.439Z,22.80
2018-07-11T02:46:03.591Z,18.60
2018-07-11T02:47:03.743Z,19.90
2018-07-11T02:48:03.897Z,21.20
2018-07-11T02:49:04.047Z,19.80
2018-07-11T02:50:04.197Z,19.30
2018-07-11T02:51:04.351Z,19.20
2018-07-11T02:52:04.502Z,19.50
2018-07-11T02:53:04.655Z,20.80
2018-07-11T02:54:04.807Z,20.10
2018-07-11T02:55:04.959Z,21.70
2018-07-11T02:56:05.108Z,20.00
2018-07-11T02:57:05.258Z,20.30
2018-07-11T02:58:05.407Z,21.60
2018-07-11T02:59:05.562Z,21.10
2018-07-11T03:00:05.716Z,24.50
2018-07-11T03:01:05.869Z,21.70
2018-07-11T03:02:06.021Z,21.30
2018-07-11T03:03:06.173Z,21.50
2018-07-11T03:04:06.322Z,22.60
2018-07-11T03:05:06.475Z,23.00
2018-07-11T03:06:06.631Z,20.80
2018-07-11T03:07:06.779Z,21.70
2018-07-11T03:08:06.931Z,21.80
2018-07-11T03:09:07.082Z,23.60
2018-07-11T03:10:07.236Z,22.10
2018-07-11T03:11:07.387Z,20.80
2018-07-11T03:12:07.537Z,21.50
2018-07-11T03:13:07.690Z,20.80
2018-07-11T03:14:07.843Z,22.80
2018-07-11T03:15:08.003Z,23.60
2018-07-11T03:16:08.145Z,24.10
2018-07-11T03:17:08.303Z,21.20
2018-07-11T03:18:08.451Z,21.10
2018-07-11T03:19:08.604Z,21.20
2018-07-11T03:20:08.757Z,22.70
2018-07-11T03:21:08.909Z,20.40
2018-07-11T03:22:09.061Z,19.40
2018-07-11T03:23:09.215Z,21.40
2018-07-11T03:24:09.365Z,19.40
2018-07-11T03:25:09.519Z,20.40
2018-07-11T03:26:09.670Z,19.90
2018-07-11T03:27:09.818Z,20.40
2018-07-11T03:28:09.971Z,20.20
2018-07-11T03:29:10.124Z,20.30
2018-07-11T03:30:10.280Z,21.80
2018-07-11T03:31:10.433Z,19.20
2018-07-11T03:32:10.589Z,17.70
2018-07-11T03:33:10.739Z,20.00
2018-07-11T03:34:10.890Z,18.90
2018-07-11T03:35:11.044Z,20.10
2018-07-11T03:36:11.198Z,19.10
2018-07-11T03:37:11.348Z,19.20
2018-07-11T03:38:11.501Z,18.00
2018-07-11T03:39:11.654Z,18.80
2018-07-11T03:40:11.805Z,20.30
2018-07-11T03:41:11.957Z,16.80
2018-07-11T03:42:12.113Z,17.90
2018-07-11T03:43:12.268Z,17.00
2018-07-11T03:44:12.424Z,18.80
2018-07-11T03:45:12.569Z,20.90
2018-07-11T03:46:12.722Z,21.90
2018-07-11T03:47:12.875Z,19.80
2018-07-11T03:48:13.031Z,20.10
2018-07-11T03:49:13.188Z,18.40
2018-07-11T03:50:13.338Z,20.00
2018-07-11T03:51:13.492Z,19.10
2018-07-11T03:52:13.644Z,19.00
2018-07-11T03:53:13.796Z,19.10
2018-07-11T03:54:13.949Z,19.10
2018-07-11T03:55:14.104Z,19.60
2018-07-11T03:56:14.258Z,20.80
2018-07-11T03:57:14.417Z,19.20
2018-07-11T03:58:14.563Z,20.10
2018-07-11T03:59:14.717Z,19.90
2018-07-11T04:00:14.869Z,18.90
2018-07-11T04:01:15.023Z,21.40
2018-07-11T04:02:15.174Z,19.70
2018-07-11T04:03:15.328Z,19.60
2018-07-11T04:04:15.480Z,22.30
2018-07-11T04:05:15.635Z,18.00
2018-07-11T04:06:15.787Z,19.20
2018-07-11T04:07:15.940Z,18.10
2018-07-11T04:08:16.095Z,20.60
2018-07-11T04:09:16.249Z,20.40
2018-07-11T04:10:16.399Z,19.30
2018-07-11T04:11:16.551Z,20.20
2018-07-11T04:12:16.705Z,19.30
2018-07-11T04:13:16.862Z,18.30
2018-07-11T04:14:17.040Z,19.50
2018-07-11T04:15:17.159Z,20.70
2018-07-11T04:16:17.310Z,21.10
2018-07-11T04:17:17.466Z,20.60
2018-07-11T04:18:17.618Z,21.70
2018-07-11T04:19:17.772Z,20.20
2018-07-11T04:20:17.924Z,18.20
2018-07-11T04:21:18.076Z,20.90
2018-07-11T04:22:18.230Z,21.70
2018-07-11T04:23:18.380Z,19.70
2018-07-11T04:24:18.534Z,18.60
2018-07-11T04:25:18.684Z,21.50
2018-07-11T04:26:18.840Z,20.30
2018-07-11T04:27:19.000Z,21.70
2018-07-11T04:28:19.734Z,19.50
2018-07-11T04:29:19.244Z,19.10
2018-07-11T04:30:19.403Z,20.20
2018-07-11T04:31:19.546Z,20.60
2018-07-11T04:32:19.698Z,22.10
2018-07-11T04:33:19.849Z,19.10
2018-07-11T04:34:19.999Z,19.40
2018-07-11T04:35:20.150Z,23.80
2018-07-11T04:36:20.303Z,19.40
2018-07-11T04:37:20.454Z,19.60
2018-07-11T04:38:20.608Z,20.90
2018-07-11T04:39:20.759Z,19.00
2018-07-11T04:40:20.908Z,19.70
2018-07-11T04:41:21.057Z,18.80
2018-07-11T04:42:21.211Z,18.40
2018-07-11T04:43:21.362Z,20.60
2018-07-11T04:44:21.520Z,19.20
2018-07-11T04:45:21.674Z,18.70
2018-07-11T04:46:21.823Z,19.20
2018-07-11T04:47:21.974Z,17.20
2018-07-11T04:48:22.126Z,18.70
2018-07-11T04:49:22.281Z,17.10
2018-07-11T04:50:22.439Z,19.00
2018-07-11T04:51:22.589Z,20.60
2018-07-11T04:52:22.741Z,19.60
2018-07-11T04:53:22.892Z,17.50
2018-07-11T04:54:23.049Z,16.00
2018-07-11T04:55:23.201Z,16.00
2018-07-11T04:56:23.353Z,15.40
2018-07-11T04:57:23.505Z,15.50
2018-07-11T04:58:23.657Z,15.80
2018-07-11T04:59:23.811Z,15.90
2018-07-11T05:00:23.964Z,15.90
2018-07-11T05:01:24.117Z,15.90
2018-07-11T05:02:24.271Z,15.90
2018-07-11T05:03:24.423Z,16.20
2018-07-11T05:04:24.573Z,16.40
2018-07-11T05:05:24.727Z,20.70
2018-07-11T05:06:24.880Z,17.00
2018-07-11T05:07:25.034Z,15.90
2018-07-11T05:08:25.185Z,18.00
2018-07-11T05:09:25.337Z,18.60
2018-07-11T05:10:25.493Z,16.20
2018-07-11T05:11:25.646Z,17.30
2018-07-11T05:12:25.800Z,17.20
2018-07-11T05:13:25.953Z,16.80
2018-07-11T05:14:26.106Z,17.10
2018-07-11T05:15:26.257Z,17.20
2018-07-11T05:16:26.413Z,15.90
2018-07-11T05:17:26.566Z,17.00
2018-07-11T05:18:26.721Z,14.70
2018-07-11T05:19:26.873Z,14.40
2018-07-11T05:20:27.034Z,14.60
2018-07-11T05:21:27.179Z,21.20
2018-07-11T05:22:27.336Z,14.80
2018-07-11T05:23:27.485Z,14.10
2018-07-11T05:24:27.641Z,14.00
2018-07-11T05:25:27.795Z,14.00
2018-07-11T05:26:27.948Z,14.40
2018-07-11T05:27:28.100Z,13.10
2018-07-11T05:28:28.253Z,13.70
2018-07-11T05:29:28.408Z,13.10
2018-07-11T05:30:28.562Z,13.50
2018-07-11T05:31:28.716Z,13.50
2018-07-11T05:32:28.869Z,12.40
2018-07-11T05:33:29.025Z,13.00
2018-07-11T05:34:29.182Z,13.00
2018-07-11T05:35:29.335Z,12.70
2018-07-11T05:36:29.490Z,12.50
2018-07-11T05:37:29.643Z,14.00
2018-07-11T05:38:29.803Z,13.50
2018-07-11T05:39:29.993Z,13.50
2018-07-11T05:40:30.108Z,12.70
2018-07-11T05:41:30.259Z,16.80
2018-07-11T05:42:30.468Z,14.90
2018-07-11T05:43:30.565Z,13.70
2018-07-11T05:44:30.719Z,13.70
2018-07-11T05:45:30.873Z,13.40
2018-07-11T05:46:31.027Z,13.20
2018-07-11T05:47:31.186Z,13.80
2018-07-11T05:48:31.337Z,14.30
2018-07-11T05:49:31.489Z,14.90
2018-07-11T05:50:31.642Z,15.40
2018-07-11T05:51:31.797Z,13.50
2018-07-11T05:52:31.951Z,13.60
2018-07-11T05:53:32.103Z,13.50
2018-07-11T05:54:32.256Z,13.50
2018-07-11T05:55:32.409Z,13.20
2018-07-11T05:56:32.562Z,13.00
2018-07-11T05:57:32.718Z,13.20
2018-07-11T05:58:32.871Z,13.70
2018-07-11T05:59:33.033Z,13.40
2018-07-11T06:00:33.181Z,12.80
2018-07-11T06:01:33.329Z,12.90
2018-07-11T06:02:33.514Z,13.40
2018-07-11T06:03:33.636Z,14.90
2018-07-11T06:04:33.791Z,12.20
2018-07-11T06:05:33.969Z,12.10
2018-07-11T06:06:34.099Z,12.70
2018-07-11T06:07:34.254Z,12.80
2018-07-11T06:08:34.406Z,13.50
2018-07-11T06:09:34.561Z,11.90
2018-07-11T06:10:34.712Z,11.80
2018-07-11T06:11:34.867Z,12.80
2018-07-11T06:12:35.024Z,12.30
2018-07-11T06:13:35.181Z,12.10
2018-07-11T06:14:35.328Z,12.70
2018-07-11T06:15:35.483Z,11.80
2018-07-11T06:16:35.657Z,12.80
2018-07-11T06:17:35.811Z,12.80
2018-07-11T06:18:35.963Z,12.70
2018-07-11T06:19:36.117Z,12.90
2018-07-11T06:20:36.270Z,12.20
2018-07-11T06:21:36.424Z,12.60
2018-07-11T06:22:36.580Z,13.30
2018-07-11T06:23:36.728Z,12.40
2018-07-11T06:24:36.882Z,12.00
2018-07-11T06:25:37.035Z,12.40
2018-07-11T06:26:37.189Z,13.50
2018-07-11T06:27:37.342Z,12.30
2018-07-11T06:28:37.494Z,13.50
2018-07-11T06:29:37.648Z,13.40
2018-07-11T06:30:37.807Z,15.00
2018-07-11T06:31:37.957Z,12.20
2018-07-11T06:32:38.109Z,12.80
2018-07-11T06:33:38.287Z,13.30
2018-07-11T06:34:38.417Z,13.30
2018-07-11T06:35:38.572Z,12.20
2018-07-11T06:36:38.725Z,14.50
2018-07-11T06:37:38.877Z,11.60
2018-07-11T06:38:39.030Z,12.40
2018-07-11T06:39:39.184Z,11.90
2018-07-11T06:40:39.337Z,12.00
2018-07-11T06:41:39.491Z,13.70
2018-07-11T06:42:39.644Z,11.40
2018-07-11T06:43:39.799Z,12.70
2018-07-11T06:44:39.953Z,11.60
2018-07-11T06:45:40.107Z,11.60
2018-07-11T06:46:40.259Z,11.00
2018-07-11T06:47:40.414Z,13.40
2018-07-11T06:48:40.567Z,11.60
2018-07-11T06:49:40.720Z,11.90
2018-07-11T06:50:40.873Z,11.40
2018-07-11T06:51:41.029Z,10.90
2018-07-11T06:52:41.182Z,10.80
2018-07-11T06:53:41.341Z,11.50
2018-07-11T06:54:41.491Z,10.50
2018-07-11T06:55:41.645Z,12.10
2018-07-11T06:56:41.796Z,11.50
2018-07-11T06:57:41.961Z,11.50
2018-07-11T06:58:42.106Z,10.60
2018-07-11T06:59:42.267Z,10.60
2018-07-11T07:00:42.417Z,11.80
2018-07-11T07:01:42.573Z,10.70
2018-07-11T07:02:42.727Z,11.00
2018-07-11T07:03:42.880Z,10.40
2018-07-11T07:04:43.038Z,10.40
2018-07-11T07:05:43.187Z,9.30
2018-07-11T07:06:43.342Z,9.20
2018-07-11T07:07:43.494Z,9.70
2018-07-11T07:08:43.649Z,10.00
2018-07-11T07:09:43.805Z,10.30
2018-07-11T07:10:43.957Z,9.80
2018-07-11T07:11:44.115Z,9.60
2018-07-11T07:12:44.266Z,10.50
2018-07-11T07:13:44.422Z,10.50
2018-07-11T07:14:44.576Z,10.30
2018-07-11T07:15:44.734Z,8.70
2018-07-11T07:16:44.888Z,9.50
2018-07-11T07:17:45.043Z,9.70
2018-07-11T07:18:45.196Z,9.30
2018-07-11T07:19:45.351Z,10.00
2018-07-11T07:20:45.510Z,8.60
2018-07-11T07:21:45.662Z,9.50
2018-07-11T07:22:45.816Z,9.50
2018-07-11T07:23:45.974Z,9.10
2018-07-11T07:24:46.127Z,9.10
2018-07-11T07:25:46.285Z,8.60
2018-07-11T07:26:46.439Z,9.20
2018-07-11T07:27:46.598Z,8.90
2018-07-11T07:28:46.750Z,8.70
2018-07-11T07:29:46.906Z,8.90
2018-07-11T07:30:47.060Z,8.60
2018-07-11T07:31:47.215Z,9.00
2018-07-11T07:32:47.373Z,9.80
2018-07-11T07:33:47.525Z,8.40
2018-07-11T07:34:47.734Z,9.40
2018-07-11T07:35:47.838Z,9.50
2018-07-11T07:36:48.042Z,8.30
2018-07-11T07:37:48.146Z,9.00
2018-07-11T07:38:48.305Z,7.90
2018-07-11T07:39:48.458Z,10.00
2018-07-11T07:40:48.614Z,8.00
2018-07-11T07:41:48.772Z,9.70
2018-07-11T07:42:48.926Z,8.50
2018-07-11T07:43:49.086Z,8.30
2018-07-11T07:44:49.237Z,9.40
2018-07-11T07:45:49.396Z,8.90
2018-07-11T07:46:49.549Z,9.40
2018-07-11T07:47:49.704Z,9.30
2018-07-11T07:48:49.859Z,10.60
2018-07-11T07:49:50.017Z,8.40
2018-07-11T07:50:50.170Z,8.90
2018-07-11T07:51:50.327Z,8.60
2018-07-11T07:52:50.487Z,8.40
2018-07-11T07:53:50.639Z,8.50
2018-07-11T07:54:50.794Z,9.00
2018-07-11T07:55:50.952Z,7.80
2018-07-11T07:56:51.106Z,8.10
2018-07-11T07:57:51.264Z,8.10
2018-07-11T07:58:51.417Z,8.00
2018-07-11T07:59:51.573Z,8.30
2018-07-11T08:00:51.733Z,7.50
2018-07-11T08:01:51.886Z,8.00
2018-07-11T08:02:52.040Z,7.60
2018-07-11T08:03:52.200Z,9.70
2018-07-11T08:04:52.352Z,7.90
2018-07-11T08:05:52.508Z,8.00
2018-07-11T08:06:52.713Z,9.60
2018-07-11T08:07:52.818Z,7.40
2018-07-11T08:08:52.976Z,8.20
2018-07-11T08:09:53.134Z,8.40
2018-07-11T08:10:53.289Z,8.80
2018-07-11T08:11:53.449Z,7.60
2018-07-11T08:12:53.601Z,7.40
2018-07-11T08:13:53.763Z,7.80
2018-07-11T08:14:53.918Z,7.40
2018-07-11T08:15:54.072Z,7.60
2018-07-11T08:16:54.229Z,7.10
2018-07-11T08:17:54.382Z,8.30
2018-07-11T08:18:54.541Z,10.00
2018-07-11T08:19:54.696Z,6.80
2018-07-11T08:20:54.855Z,8.30
2018-07-11T08:21:55.009Z,7.10
2018-07-11T08:22:55.166Z,7.90
2018-07-11T08:23:55.320Z,8.00
2018-07-11T08:24:55.476Z,7.20
2018-07-11T08:25:55.630Z,8.80
2018-07-11T08:26:55.786Z,7.00
2018-07-11T08:27:55.942Z,6.70
2018-07-11T08:28:56.101Z,7.00
2018-07-11T08:29:56.262Z,7.50
2018-07-11T08:30:56.414Z,7.60
2018-07-11T08:31:56.573Z,6.90
2018-07-11T08:32:56.729Z,7.00
2018-07-11T08:33:56.881Z,6.50
2018-07-11T08:34:57.040Z,6.80
2018-07-11T08:35:57.195Z,7.40
2018-07-11T08:36:57.354Z,6.50
2018-07-11T08:37:57.509Z,6.80
2018-07-11T08:38:57.669Z,6.90
2018-07-11T08:39:57.823Z,7.70
2018-07-11T08:40:57.977Z,6.70
2018-07-11T08:41:58.135Z,7.00
2018-07-11T08:42:58.292Z,7.80
2018-07-11T08:43:58.451Z,6.90
2018-07-11T08:44:58.604Z,6.30
2018-07-11T08:45:58.760Z,7.50
2018-07-11T08:46:58.914Z,8.60
2018-07-11T08:47:59.092Z,7.10
2018-07-11T08:48:59.229Z,6.60
2018-07-11T08:49:59.386Z,8.90
2018-07-11T08:50:59.541Z,8.50
2018-07-11T08:51:59.697Z,7.30
2018-07-11T08:52:59.852Z,6.50
2018-07-11T08:54:00.013Z,8.50
2018-07-11T08:55:00.217Z,6.40
2018-07-11T08:56:00.342Z,10.00
2018-07-11T08:57:00.497Z,7.80
2018-07-11T08:58:00.656Z,6.00
2018-07-11T08:59:00.811Z,6.30
2018-07-11T09:00:00.974Z,6.90
2018-07-11T09:01:01.127Z,6.50
2018-07-11T09:02:01.284Z,7.40
2018-07-11T09:03:01.440Z,6.60
2018-07-11T09:04:01.601Z,7.40
2018-07-11T09:05:01.755Z,7.50
2018-07-11T09:06:01.917Z,7.10
2018-07-11T09:07:02.073Z,7.00
2018-07-11T09:08:02.233Z,6.90
2018-07-11T09:09:02.389Z,6.90
2018-07-11T09:10:02.545Z,6.30
2018-07-11T09:11:02.704Z,7.60
2018-07-11T09:12:02.860Z,5.70
2018-07-11T09:13:03.016Z,5.40
2018-07-11T09:14:03.173Z,5.80
2018-07-11T09:15:03.329Z,6.10
2018-07-11T09:16:03.488Z,6.00
2018-07-11T09:17:03.648Z,5.60
2018-07-11T09:18:03.805Z,5.60
2018-07-11T09:19:03.964Z,4.70
2018-07-11T09:20:04.120Z,5.50
2018-07-11T09:21:04.280Z,6.40
2018-07-11T09:22:04.437Z,5.90
2018-07-11T09:23:04.595Z,5.70
2018-07-11T09:24:04.782Z,5.50
2018-07-11T09:25:04.914Z,4.80
2018-07-11T09:26:05.068Z,4.60
2018-07-11T09:27:05.228Z,5.60
2018-07-11T09:28:05.386Z,5.50
2018-07-11T09:29:05.545Z,6.30
2018-07-11T09:30:05.700Z,4.70
2018-07-11T09:31:05.862Z,6.60
2018-07-11T09:32:06.018Z,5.30
2018-07-11T09:33:06.175Z,6.00
2018-07-11T09:34:06.333Z,5.50
2018-07-11T09:35:06.491Z,5.50
2018-07-11T09:36:06.648Z,4.40
2018-07-11T09:37:06.806Z,6.10
2018-07-11T09:38:06.972Z,7.20
2018-07-11T09:39:07.123Z,5.30
2018-07-11T09:40:07.279Z,5.60
2018-07-11T09:41:07.438Z,5.10
2018-07-11T09:42:07.593Z,4.80
2018-07-11T09:43:07.754Z,4.80
2018-07-11T09:44:07.910Z,5.80
2018-07-11T09:45:08.118Z,8.70
2018-07-11T09:46:08.225Z,4.20
2018-07-11T09:47:08.379Z,5.40
2018-07-11T09:48:08.538Z,5.80
2018-07-11T09:49:08.695Z,5.10
2018-07-11T09:50:08.850Z,4.60
2018-07-11T09:51:09.008Z,7.40
2018-07-11T09:52:09.227Z,6.50
2018-07-11T09:53:09.322Z,7.80
2018-07-11T09:54:09.504Z,5.30
2018-07-11T09:55:09.633Z,9.00
2018-07-11T09:56:09.792Z,6.10
2018-07-11T09:57:09.951Z,5.70
2018-07-11T09:58:10.112Z,5.60
2018-07-11T09:59:10.269Z,7.80
2018-07-11T10:00:10.424Z,6.20
2018-07-11T10:01:10.581Z,5.60
2018-07-11T10:02:10.739Z,6.10
2018-07-11T10:03:10.895Z,8.90
2018-07-11T10:04:11.052Z,7.80
2018-07-11T10:05:11.260Z,5.80
2018-07-11T10:06:11.366Z,6.50
2018-07-11T10:07:11.524Z,6.50
2018-07-11T10:08:11.679Z,5.10
2018-07-11T10:09:11.833Z,5.20
2018-07-11T10:10:11.990Z,5.40
2018-07-11T10:11:12.148Z,5.20
2018-07-11T10:12:12.303Z,6.10
2018-07-11T10:13:12.462Z,4.80
2018-07-11T10:14:12.615Z,6.50
2018-07-11T10:15:12.774Z,5.50
2018-07-11T10:16:12.934Z,6.40
2018-07-11T10:17:13.090Z,5.30
2018-07-11T10:18:13.248Z,5.50
2018-07-11T10:19:13.407Z,6.30
2018-07-11T10:20:13.563Z,5.60
2018-07-11T10:21:13.721Z,4.70
2018-07-11T10:22:13.880Z,5.50
2018-07-11T10:23:14.039Z,5.90
2018-07-11T10:24:14.194Z,6.10
2018-07-11T10:25:14.351Z,5.60
2018-07-11T10:26:14.509Z,4.00
2018-07-11T10:27:14.667Z,5.00
2018-07-11T10:28:14.825Z,6.50
2018-07-11T10:29:14.984Z,5.60
2018-07-11T10:30:15.143Z,8.40
2018-07-11T10:31:15.301Z,7.60
2018-07-11T10:32:15.456Z,6.10
2018-07-11T10:33:15.616Z,8.70
2018-07-11T10:34:15.773Z,8.90
2018-07-11T10:35:15.932Z,8.70
2018-07-11T10:36:16.090Z,6.50
2018-07-11T10:37:16.250Z,6.30
2018-07-11T10:38:16.409Z,6.50
2018-07-11T10:39:16.572Z,6.10
2018-07-11T10:40:16.727Z,5.60
2018-07-11T10:41:16.887Z,5.90
2018-07-11T10:42:17.045Z,6.60
2018-07-11T10:43:17.204Z,4.90
2018-07-11T10:44:17.364Z,6.70
2018-07-11T10:45:17.523Z,4.90
2018-07-11T10:46:17.684Z,5.00
2018-07-11T10:47:17.839Z,6.20
2018-07-11T10:48:18.001Z,4.90
2018-07-11T10:49:18.158Z,3.60
2018-07-11T10:50:18.317Z,3.80
2018-07-11T10:51:18.477Z,4.50
2018-07-11T10:52:18.637Z,4.60
2018-07-11T10:53:18.803Z,3.30
2018-07-11T10:54:18.956Z,3.10
2018-07-11T10:55:19.114Z,6.60
2018-07-11T10:56:19.277Z,3.90
2018-07-11T10:57:19.431Z,4.90
2018-07-11T10:58:19.589Z,5.10
2018-07-11T10:59:19.750Z,4.00
2018-07-11T11:00:35.972Z,3.70
2018-07-11T11:01:20.155Z,3.60
2018-07-11T11:02:20.224Z,5.90
2018-07-11T11:03:20.383Z,5.10
2018-07-11T11:04:20.543Z,5.00
2018-07-11T11:05:20.701Z,5.20
2018-07-11T11:06:20.859Z,4.40
2018-07-11T11:07:21.018Z,5.10
2018-07-11T11:08:21.175Z,6.70
2018-07-11T11:09:21.337Z,4.80
2018-07-11T11:10:21.495Z,7.00
2018-07-11T11:11:21.652Z,4.50
2018-07-11T11:12:21.811Z,6.40
2018-07-11T11:13:21.969Z,7.20
2018-07-11T11:14:22.127Z,3.30
2018-07-11T11:15:22.284Z,6.70
2018-07-11T11:16:22.444Z,4.00
2018-07-11T11:17:22.601Z,4.90
2018-07-11T11:18:22.758Z,4.60
2018-07-11T11:19:22.918Z,3.40
2018-07-11T11:20:23.074Z,3.20
2018-07-11T11:21:23.234Z,3.70
2018-07-11T11:22:23.395Z,4.80
2018-07-11T11:23:23.551Z,3.10
2018-07-11T11:24:23.711Z,6.80
2018-07-11T11:25:23.872Z,4.30
2018-07-11T11:26:24.033Z,3.60
2018-07-11T11:27:24.189Z,5.10
2018-07-11T11:28:24.350Z,4.60
2018-07-11T11:29:24.508Z,3.60
2018-07-11T11:30:24.676Z,7.10
2018-07-11T11:31:24.833Z,5.30
2018-07-11T11:32:24.991Z,3.40
2018-07-11T11:33:25.154Z,2.90
2018-07-11T11:34:25.310Z,2.80
2018-07-11T11:35:25.469Z,3.80
2018-07-11T11:36:25.625Z,3.50
2018-07-11T11:37:25.787Z,5.50
2018-07-11T11:38:25.945Z,3.80
2018-07-11T11:39:26.106Z,3.80
2018-07-11T11:40:26.267Z,3.90
2018-07-11T11:41:26.431Z,4.80
2018-07-11T11:42:26.829Z,4.00
2018-07-11T11:43:26.745Z,5.30
2018-07-11T11:44:26.901Z,6.90
2018-07-11T11:45:27.062Z,3.50
2018-07-11T11:46:27.222Z,3.60
2018-07-11T11:47:27.387Z,4.20
2018-07-11T11:48:27.543Z,3.40
2018-07-11T11:49:27.705Z,3.80
2018-07-11T11:50:27.869Z,1.90
2018-07-11T11:51:28.028Z,3.40
2018-07-11T11:52:28.188Z,4.20
2018-07-11T11:53:28.349Z,3.50
2018-07-11T11:54:28.510Z,3.20
2018-07-11T11:55:28.672Z,3.40
2018-07-11T11:56:28.833Z,3.60
2018-07-11T11:57:28.995Z,3.70
2018-07-11T11:58:29.185Z,4.20
2018-07-11T11:59:29.316Z,4.40
2018-07-11T12:00:29.476Z,3.30
2018-07-11T12:01:29.639Z,3.90
2018-07-11T12:02:29.800Z,4.30
2018-07-11T12:03:29.962Z,4.30
2018-07-11T12:04:30.119Z,3.30
2018-07-11T12:05:30.282Z,3.60
2018-07-11T12:06:30.453Z,2.90
2018-07-11T12:07:30.617Z,4.80
2018-07-11T12:08:30.778Z,2.10
2018-07-11T12:09:30.940Z,3.40
2018-07-11T12:10:31.100Z,5.10
2018-07-11T12:11:31.260Z,2.60
2018-07-11T12:12:31.423Z,3.70
2018-07-11T12:13:31.582Z,3.70
2018-07-11T12:14:31.741Z,2.50
2018-07-11T12:15:31.901Z,2.50
2018-07-11T12:16:32.064Z,3.40
2018-07-11T12:17:32.225Z,3.70
2018-07-11T12:18:32.387Z,3.30
2018-07-11T12:19:32.548Z,3.60
2018-07-11T12:20:32.709Z,3.30
2018-07-11T12:21:32.946Z,3.30
2018-07-11T12:22:33.031Z,2.90
2018-07-11T12:23:33.188Z,2.90
2018-07-11T12:24:33.348Z,3.70
2018-07-11T12:25:33.510Z,4.30
2018-07-11T12:26:33.671Z,3.60
2018-07-11T12:27:33.831Z,1.80
2018-07-11T12:28:33.993Z,4.60
2018-07-11T12:29:34.152Z,4.00
2018-07-11T12:30:34.311Z,3.20
2018-07-11T12:31:34.471Z,2.70
2018-07-11T12:32:34.633Z,2.40
2018-07-11T12:33:34.861Z,4.80
2018-07-11T12:34:34.956Z,4.00
2018-07-11T12:35:35.119Z,2.40
2018-07-11T12:36:35.279Z,3.40
2018-07-11T12:37:35.440Z,3.30
2018-07-11T12:38:35.603Z,2.90
2018-07-11T12:39:35.766Z,4.60
2018-07-11T12:40:35.927Z,3.00
2018-07-11T12:41:36.090Z,2.50
2018-07-11T12:42:36.249Z,2.80
2018-07-11T12:43:36.491Z,2.80
2018-07-11T12:44:36.573Z,3.50
2018-07-11T12:45:36.733Z,2.40
2018-07-11T12:46:36.891Z,1.70
2018-07-11T12:47:37.054Z,2.10
2018-07-11T12:48:37.216Z,1.70
2018-07-11T12:49:37.390Z,2.60
2018-07-11T12:50:37.549Z,2.00
2018-07-11T12:51:37.711Z,2.20
2018-07-11T12:52:37.871Z,2.40
2018-07-11T12:53:38.032Z,2.00
2018-07-11T12:54:38.193Z,4.90
2018-07-11T12:55:38.353Z,2.00
2018-07-11T12:56:38.514Z,3.40
2018-07-11T12:57:38.674Z,1.70
2018-07-11T12:58:38.835Z,1.90
2018-07-11T12:59:38.995Z,2.60
2018-07-11T13:00:39.156Z,2.00
2018-07-11T13:01:39.316Z,2.30
2018-07-11T13:02:39.485Z,3.10
2018-07-11T13:03:39.639Z,1.90
2018-07-11T13:04:39.801Z,2.30
2018-07-11T13:05:39.961Z,2.40
2018-07-11T13:06:40.127Z,2.80